Time;durP1;ratioP1;P1;durP2;ratioP2;P2;SDS_P1;SDS_P2;PMS_P1;PMS_P2;Temp;Humidity;BMP_temperature;BMP_pressure;BME280_temperature;BME280_humidity;BME280_pressure;Samples;Min_cycle;Max_cycle;Signal;HPM_P1;HPM_P2
2022/09/03 00:01:34;;;;;;;7.33;3.07;;;17.50;99.90;;;;;;5010648;28;20423;-63
2022/09/03 00:04:16;;;;;;;3.70;3.40;;;17.50;99.90;;;;;;5011921;28;20413;-64
2022/09/03 00:06:49;;;;;;;4.03;2.67;;;17.30;99.90;;;;;;5011899;28;20447;-65
2022/09/03 00:09:23;;;;;;;3.97;3.23;;;17.40;99.90;;;;;;5011745;28;20404;-64
2022/09/03 00:12:25;;;;;;;3.10;2.80;;;17.50;99.90;;;;;;5011973;28;20915;-65
2022/09/03 00:15:10;;;;;;;4.23;2.90;;;17.40;99.90;;;;;;5000246;28;20432;-61
2022/09/03 00:18:17;;;;;;;3.97;3.30;;;17.40;99.90;;;;;;5011551;28;20786;-64
2022/09/03 00:20:48;;;;;;;7.10;5.40;;;17.50;99.90;;;;;;5011499;28;20903;-66
2022/09/03 00:23:20;;;;;;;5.80;2.83;;;17.50;99.90;;;;;;5010256;28;20498;-65
2022/09/03 00:25:54;;;;;;;5.47;2.77;;;17.40;99.90;;;;;;5011562;28;20766;-64
2022/09/03 00:28:29;;;;;;;3.97;2.80;;;17.20;99.90;;;;;;5011264;28;20997;-61
2022/09/03 00:31:10;;;;;;;3.70;3.40;;;17.20;99.90;;;;;;5011299;28;20516;-64
2022/09/03 00:33:38;;;;;;;3.90;3.07;;;17.20;99.90;;;;;;5011423;28;20418;-64
2022/09/03 00:36:28;;;;;;;3.80;3.27;;;17.20;99.90;;;;;;5011282;28;20411;-65
2022/09/03 00:38:54;;;;;;;3.97;3.03;;;17.10;99.90;;;;;;5009569;28;20403;-66
2022/09/03 00:41:37;;;;;;;3.60;2.77;;;17.10;99.90;;;;;;5011216;28;20870;-66
2022/09/03 00:44:43;;;;;;;3.97;3.10;;;17.10;99.90;;;;;;5011295;28;20211;-66
2022/09/03 00:47:46;;;;;;;4.17;3.00;;;17.10;99.90;;;;;;5009664;28;20454;-63
2022/09/03 00:50:30;;;;;;;7.80;3.10;;;17.10;99.90;;;;;;5010189;28;20933;-64
2022/09/03 00:53:26;;;;;;;3.40;2.97;;;17.00;99.90;;;;;;5011352;28;20396;-63
2022/09/03 00:56:14;;;;;;;3.80;3.27;;;16.90;99.90;;;;;;5011227;28;20812;-64
2022/09/03 00:58:57;;;;;;;4.90;3.23;;;16.80;99.90;;;;;;5010724;28;20411;-67
2022/09/03 01:01:50;;;;;;;6.10;3.37;;;16.80;99.90;;;;;;5010964;28;20783;-67
2022/09/03 01:04:42;;;;;;;5.73;3.20;;;16.80;99.90;;;;;;5011024;28;20398;-63
2022/09/03 01:07:14;;;;;;;3.03;2.73;;;16.70;99.90;;;;;;5009354;28;20779;-63
2022/09/03 01:09:51;;;;;;;4.67;3.40;;;16.90;99.90;;;;;;5009492;28;20414;-63
2022/09/03 01:12:25;;;;;;;3.70;3.00;;;17.00;99.90;;;;;;5010792;28;20426;-65
2022/09/03 01:15:03;;;;;;;4.50;3.47;;;16.90;99.90;;;;;;5010883;28;20899;-64
2022/09/03 01:18:15;;;;;;;5.93;3.40;;;16.80;99.90;;;;;;5009260;28;20415;-62
2022/09/03 01:20:57;;;;;;;3.57;3.27;;;16.60;99.90;;;;;;4989490;28;20433;-63
2022/09/03 01:23:38;;;;;;;3.40;2.70;;;16.50;99.90;;;;;;5010757;28;20880;-64
2022/09/03 01:26:28;;;;;;;4.80;3.30;;;16.40;99.90;;;;;;5010792;28;20407;-63
2022/09/03 01:29:00;;;;;;;3.40;3.10;;;16.50;99.90;;;;;;5010439;28;20497;-65
2022/09/03 01:31:36;;;;;;;7.20;3.13;;;16.50;99.90;;;;;;5010602;28;20802;-65
2022/09/03 01:34:29;;;;;;;3.50;2.97;;;16.60;99.90;;;;;;5013266;28;20444;-65
2022/09/03 01:37:11;;;;;;;3.97;3.27;;;16.60;99.90;;;;;;5014522;28;20811;-63
2022/09/03 01:39:55;;;;;;;3.80;3.50;;;16.40;99.90;;;;;;5014530;28;20417;-64
2022/09/03 01:42:39;;;;;;;3.80;2.90;;;16.40;99.90;;;;;;5014380;28;20427;-65
2022/09/03 01:45:30;;;;;;;3.87;3.30;;;16.60;99.90;;;;;;5013394;28;20419;-65
2022/09/03 01:48:29;;;;;;;4.60;2.97;;;16.50;99.90;;;;;;5014253;28;20454;-65
2022/09/03 01:51:19;;;;;;;4.10;3.07;;;16.50;99.90;;;;;;5014339;28;20951;-63
2022/09/03 01:54:01;;;;;;;3.67;3.27;;;16.40;99.90;;;;;;5014460;28;20435;-66
2022/09/03 01:56:49;;;;;;;7.30;3.10;;;16.40;99.90;;;;;;5014344;28;20494;-66
2022/09/03 01:59:30;;;;;;;4.50;3.37;;;16.40;99.90;;;;;;5014421;28;20480;-63
2022/09/03 02:02:18;;;;;;;3.30;3.00;;;16.40;99.90;;;;;;5014091;28;20410;-60
2022/09/03 02:05:01;;;;;;;5.30;3.37;;;16.30;99.90;;;;;;5014188;28;20403;-66
2022/09/03 02:07:33;;;;;;;4.73;3.20;;;16.30;99.90;;;;;;5013974;28;20458;-65
2022/09/03 02:10:00;;;;;;;3.73;3.30;;;16.20;99.90;;;;;;5013906;28;20438;-67
2022/09/03 02:12:31;;;;;;;3.33;3.03;;;16.30;99.90;;;;;;5013986;28;20427;-65
2022/09/03 02:14:59;;;;;;;3.50;2.73;;;16.40;99.90;;;;;;5014131;28;20399;-64
2022/09/03 02:17:25;;;;;;;3.53;2.67;;;16.40;99.90;;;;;;5012507;28;20501;-64
2022/09/03 02:19:50;;;;;;;21.17;5.53;;;16.50;99.90;;;;;;5013977;28;20453;-60
2022/09/03 02:22:16;;;;;;;6.17;3.30;;;16.50;99.90;;;;;;5013945;28;20184;-61
2022/09/03 02:24:42;;;;;;;4.37;3.93;;;16.60;99.90;;;;;;5013831;28;20633;-61
2022/09/03 02:27:08;;;;;;;4.57;3.40;;;16.40;99.90;;;;;;5013753;28;20679;-65
2022/09/03 02:29:34;;;;;;;4.27;3.50;;;16.50;99.90;;;;;;5014076;28;20404;-65
2022/09/03 02:32:00;;;;;;;3.73;3.40;;;16.50;99.90;;;;;;5014282;28;20629;-67
2022/09/03 02:34:26;;;;;;;4.93;3.10;;;16.50;99.90;;;;;;5013614;28;20167;-65
2022/09/03 02:36:52;;;;;;;5.80;3.93;;;16.40;99.90;;;;;;5013448;28;20230;-63
2022/09/03 02:39:18;;;;;;;3.70;3.37;;;16.40;99.90;;;;;;5013403;28;20169;-63
2022/09/03 02:41:43;;;;;;;6.60;3.50;;;16.30;99.90;;;;;;5013478;28;20447;-66
2022/09/03 02:44:39;;;;;;;5.13;3.20;;;16.30;99.90;;;;;;5013598;28;20267;-64
2022/09/03 02:47:07;;;;;;;4.10;3.70;;;16.30;99.90;;;;;;5013382;28;20191;-64
2022/09/03 02:49:33;;;;;;;4.23;3.50;;;16.30;99.90;;;;;;5013526;28;20407;-63
2022/09/03 02:52:08;;;;;;;3.47;3.17;;;16.30;99.90;;;;;;5013288;28;20473;-65
2022/09/03 02:54:38;;;;;;;5.00;3.40;;;16.20;99.90;;;;;;5012039;28;20484;-65
2022/09/03 02:57:07;;;;;;;3.10;2.80;;;16.20;99.90;;;;;;5013126;28;20932;-65
2022/09/03 02:59:34;;;;;;;6.87;3.40;;;16.40;99.90;;;;;;5013052;28;20755;-65
2022/09/03 03:02:00;;;;;;;3.67;3.30;;;16.30;99.90;;;;;;5012929;28;20466;-65
2022/09/03 03:04:26;;;;;;;3.40;3.10;;;16.20;99.90;;;;;;5013078;28;20414;-66
2022/09/03 03:06:51;;;;;;;17.60;4.60;;;16.40;99.90;;;;;;5012873;28;20629;-65
2022/09/03 03:09:17;;;;;;;3.60;3.30;;;16.40;99.90;;;;;;5012848;28;20234;-65
2022/09/03 03:11:44;;;;;;;4.50;3.40;;;16.40;99.90;;;;;;5012760;28;20275;-67
2022/09/03 03:14:09;;;;;;;4.17;3.20;;;16.40;99.90;;;;;;5012776;28;20814;-66
2022/09/03 03:16:35;;;;;;;4.50;3.60;;;16.30;99.90;;;;;;5012691;28;20561;-67
2022/09/03 03:19:01;;;;;;;3.30;3.03;;;16.20;99.90;;;;;;5012532;28;20534;-64
2022/09/03 03:21:27;;;;;;;4.67;3.33;;;16.10;99.90;;;;;;5012612;28;20489;-64
2022/09/03 03:23:53;;;;;;;6.93;3.60;;;16.20;99.90;;;;;;5012738;28;20403;-63
2022/09/03 03:26:21;;;;;;;4.60;3.20;;;16.20;99.90;;;;;;5012508;28;20767;-61
2022/09/03 03:28:48;;;;;;;3.60;3.30;;;16.20;99.90;;;;;;5012326;28;20275;-64
2022/09/03 03:31:19;;;;;;;3.43;3.13;;;16.20;99.90;;;;;;5011101;28;20459;-63
2022/09/03 03:33:54;;;;;;;4.57;4.17;;;16.10;99.90;;;;;;5012366;28;20400;-63
2022/09/03 03:36:21;;;;;;;5.30;3.40;;;16.00;99.90;;;;;;5012629;28;20763;-63
2022/09/03 03:38:47;;;;;;;3.63;3.33;;;16.10;99.90;;;;;;5012309;28;20998;-61
2022/09/03 03:41:20;;;;;;;4.00;3.50;;;16.20;99.90;;;;;;5012324;28;20472;-63
2022/09/03 03:43:46;;;;;;;4.33;3.63;;;16.10;99.90;;;;;;5012447;28;20958;-63
2022/09/03 03:46:13;;;;;;;5.80;3.40;;;16.20;99.90;;;;;;5012248;28;20494;-67
2022/09/03 03:48:40;;;;;;;5.77;3.70;;;16.30;99.90;;;;;;5011772;28;20740;-66
2022/09/03 03:51:08;;;;;;;5.70;3.73;;;16.10;99.90;;;;;;5012364;28;20430;-62
2022/09/03 03:53:36;;;;;;;3.70;3.40;;;16.30;99.90;;;;;;5012359;28;20749;-64
2022/09/03 03:56:04;;;;;;;3.63;3.30;;;16.40;99.90;;;;;;5011609;28;20399;-63
2022/09/03 03:58:31;;;;;;;4.70;3.47;;;16.30;99.90;;;;;;5011764;28;20410;-65
2022/09/03 04:01:15;;;;;;;3.70;3.30;;;16.40;99.90;;;;;;5012103;28;20462;-65
2022/09/03 04:03:41;;;;;;;4.10;3.57;;;16.30;99.90;;;;;;5011987;28;20406;-67
2022/09/03 04:06:08;;;;;;;3.33;3.03;;;16.20;99.90;;;;;;5011869;28;20407;-67
2022/09/03 04:08:40;;;;;;;3.97;3.57;;;16.20;99.90;;;;;;5011474;28;20287;-63
2022/09/03 04:11:08;;;;;;;4.07;3.67;;;16.30;99.90;;;;;;5010340;28;20794;-64
2022/09/03 04:13:40;;;;;;;4.37;3.70;;;16.10;99.90;;;;;;5011725;28;20907;-66
2022/09/03 04:16:08;;;;;;;5.03;3.43;;;16.00;1.00;;;;;;5011717;28;20403;-62
2022/09/03 04:18:35;;;;;;;4.50;3.83;;;16.00;1.00;;;;;;5011203;28;20769;-62
2022/09/03 04:21:09;;;;;;;7.80;3.67;;;15.90;1.00;;;;;;5011534;28;20427;-61
2022/09/03 04:23:41;;;;;;;5.40;4.00;;;16.10;1.00;;;;;;5011719;28;20413;-64
2022/09/03 04:26:09;;;;;;;5.13;2.97;;;16.20;1.00;;;;;;5011652;28;20868;-60
2022/09/03 04:28:35;;;;;;;16.47;4.50;;;16.10;1.00;;;;;;5011043;28;20464;-63
2022/09/03 04:31:06;;;;;;;5.50;4.10;;;16.20;1.00;;;;;;5011413;28;20446;-64
2022/09/03 04:33:33;;;;;;;7.63;3.67;;;16.10;1.00;;;;;;5011600;28;20410;-63
2022/09/03 04:36:06;;;;;;;4.67;3.77;;;16.00;1.00;;;;;;5011522;28;20992;-63
2022/09/03 04:38:34;;;;;;;5.03;3.57;;;16.00;1.00;;;;;;5011049;28;20407;-62
2022/09/03 04:41:00;;;;;;;6.53;3.97;;;15.80;1.00;;;;;;5011335;28;20510;-63
2022/09/03 04:43:26;;;;;;;6.40;4.23;;;15.70;1.00;;;;;;5011509;28;20403;-62
2022/09/03 04:45:56;;;;;;;7.83;4.20;;;15.80;1.00;;;;;;5009982;28;20415;-63
2022/09/03 04:48:22;;;;;;;7.50;3.50;;;16.00;1.00;;;;;;5010901;28;20455;-63
2022/09/03 04:50:48;;;;;;;8.27;4.23;;;15.90;1.00;;;;;;5011070;28;20427;-63
2022/09/03 04:53:13;;;;;;;7.30;4.07;;;15.90;1.00;;;;;;5011169;28;20164;-63
2022/09/03 04:55:39;;;;;;;4.10;3.70;;;15.80;1.00;;;;;;5011114;28;20176;-64
2022/09/03 04:58:08;;;;;;;15.73;4.93;;;15.90;1.00;;;;;;5010803;28;20219;-63
2022/09/03 05:00:37;;;;;;;5.63;3.77;;;16.00;1.00;;;;;;5011000;28;20171;-63
2022/09/03 05:03:03;;;;;;;4.20;3.80;;;15.90;1.00;;;;;;5011245;28;20681;-63
2022/09/03 05:05:30;;;;;;;11.03;5.00;;;15.90;1.00;;;;;;5010957;28;20407;-64
2022/09/03 05:08:03;;;;;;;4.50;3.93;;;15.90;1.00;;;;;;5009872;28;20461;-63
2022/09/03 05:10:29;;;;;;;3.90;3.60;;;15.90;99.90;;;;;;5010825;28;20399;-62
2022/09/03 05:13:04;;;;;;;10.03;5.00;;;15.80;99.90;;;;;;5011059;28;20407;-61
2022/09/03 05:15:31;;;;;;;6.23;4.60;;;15.90;99.90;;;;;;5010788;28;20460;-63
2022/09/03 05:18:01;;;;;;;4.23;3.87;;;15.90;99.90;;;;;;5010840;28;20843;-62
2022/09/03 05:20:28;;;;;;;5.23;4.73;;;15.80;1.00;;;;;;5010790;28;20440;-62
2022/09/03 05:23:04;;;;;;;4.57;4.17;;;15.70;1.00;;;;;;5011025;28;20423;-64
2022/09/03 05:25:31;;;;;;;8.10;5.27;;;15.80;1.00;;;;;;5010936;28;20456;-64
2022/09/03 05:27:57;;;;;;;5.90;4.87;;;15.90;1.00;;;;;;5010432;28;20446;-64
2022/09/03 05:30:24;;;;;;;14.47;5.20;;;15.80;1.00;;;;;;5010645;28;20465;-65
2022/09/03 05:32:50;;;;;;;6.90;4.47;;;15.80;1.00;;;;;;5009186;28;20451;-65
2022/09/03 05:35:17;;;;;;;7.70;4.43;;;15.80;1.00;;;;;;5010672;28;20403;-64
2022/09/03 05:37:43;;;;;;;7.60;5.10;;;15.70;1.00;;;;;;5010598;28;20425;-63
2022/09/03 05:40:11;;;;;;;4.37;3.97;;;15.70;1.00;;;;;;5010719;28;20415;-67
2022/09/03 05:42:37;;;;;;;6.37;4.23;;;15.60;1.00;;;;;;5010355;28;20270;-67
2022/09/03 05:45:11;;;;;;;4.80;4.30;;;15.70;1.00;;;;;;5009080;28;20412;-67
2022/09/03 05:47:38;;;;;;;12.20;5.43;;;15.80;1.00;;;;;;5010328;28;20597;-67
2022/09/03 05:50:09;;;;;;;8.60;4.73;;;16.00;1.00;;;;;;5010154;28;20545;-67
2022/09/03 05:52:36;;;;;;;32.27;9.07;;;16.10;1.00;;;;;;5010575;28;20416;-67
2022/09/03 05:55:02;;;;;;;35.97;8.70;;;16.20;1.00;;;;;;5010392;28;20400;-66
2022/09/03 05:57:29;;;;;;;14.37;5.50;;;16.30;99.90;;;;;;5010535;28;20997;-66
2022/09/03 05:59:55;;;;;;;30.33;7.60;;;16.20;1.00;;;;;;5010265;28;20404;-66
2022/09/03 06:02:21;;;;;;;25.37;6.07;;;16.40;1.00;;;;;;5010607;28;20433;-65
2022/09/03 06:04:48;;;;;;;19.70;5.80;;;16.60;99.90;;;;;;5010994;28;20403;-61
2022/09/03 06:07:14;;;;;;;12.83;5.90;;;16.70;99.90;;;;;;5011462;28;20299;-63
2022/09/03 06:09:40;;;;;;;17.50;6.80;;;16.80;99.90;;;;;;5010292;28;20439;-63
2022/09/03 06:12:06;;;;;;;17.30;6.17;;;16.80;99.90;;;;;;5010594;28;20415;-64
2022/09/03 06:14:32;;;;;;;25.97;6.77;;;16.80;99.90;;;;;;5010371;28;20415;-63
2022/09/03 06:16:57;;;;;;;25.80;7.70;;;16.90;99.90;;;;;;5010012;28;20172;-63
2022/09/03 06:19:23;;;;;;;18.53;6.07;;;17.00;99.90;;;;;;5011384;28;20183;-66
2022/09/03 06:21:51;;;;;;;44.83;8.80;;;17.00;99.90;;;;;;5013860;28;20200;-64
2022/09/03 06:24:20;;;;;;;71.70;13.40;;;17.00;99.90;;;;;;5013640;28;20169;-65
2022/09/03 06:26:46;;;;;;;19.03;6.20;;;17.10;99.90;;;;;;5013567;28;20514;-65
2022/09/03 06:29:12;;;;;;;20.83;7.40;;;17.00;99.90;;;;;;5013453;28;20499;-63
2022/09/03 06:31:38;;;;;;;10.67;5.47;;;17.10;99.90;;;;;;5013533;28;20203;-63
2022/09/03 06:34:04;;;;;;;13.47;5.30;;;17.20;99.90;;;;;;5013527;28;20403;-66
2022/09/03 06:36:31;;;;;;;7.53;5.13;;;17.20;54.40;;;;;;5013770;28;20438;-62
2022/09/03 06:38:57;;;;;;;16.60;6.20;;;17.20;99.90;;;;;;5013248;28;20415;-63
2022/09/03 06:41:25;;;;;;;9.30;5.90;;;17.30;99.90;;;;;;5013140;28;20459;-65
2022/09/03 06:43:54;;;;;;;7.87;5.50;;;17.50;16.90;;;;;;5013405;28;20407;-62
2022/09/03 06:46:22;;;;;;;7.37;5.63;;;17.60;1.00;;;;;;5013550;28;20546;-66
2022/09/03 06:48:49;;;;;;;5.70;5.20;;;17.70;1.00;;;;;;5012893;28;20450;-64
2022/09/03 06:51:27;;;;;;;9.37;5.30;;;17.90;1.00;;;;;;5013199;28;20901;-63
2022/09/03 06:54:05;;;;;;;17.00;8.00;;;18.10;1.00;;;;;;5013245;28;20422;-64
2022/09/03 06:56:31;;;;;;;37.77;7.53;;;18.40;1.00;;;;;;5013105;28;20490;-64
2022/09/03 06:58:59;;;;;;;39.27;9.03;;;18.60;1.00;;;;;;5012771;28;20900;-64
2022/09/03 07:01:29;;;;;;;6.40;5.80;;;18.80;1.00;;;;;;5011576;28;20940;-64
2022/09/03 07:03:57;;;;;;;8.87;5.87;;;18.90;1.00;;;;;;5013177;28;20411;-64
2022/09/03 07:06:26;;;;;;;21.63;7.20;;;18.80;1.00;;;;;;5013337;28;20418;-65
2022/09/03 07:08:53;;;;;;;9.67;6.33;;;18.80;1.00;;;;;;5012343;28;20454;-67
2022/09/03 07:11:25;;;;;;;6.50;5.97;;;18.80;1.00;;;;;;5012975;28;20772;-65
2022/09/03 07:13:52;;;;;;;21.60;7.97;;;18.60;1.00;;;;;;5012818;28;20417;-67
2022/09/03 07:16:22;;;;;;;16.50;7.03;;;18.50;1.00;;;;;;5012772;28;20462;-66
2022/09/03 07:18:49;;;;;;;33.43;8.37;;;18.40;1.00;;;;;;5012538;28;20946;-66
2022/09/03 07:21:25;;;;;;;30.27;7.53;;;18.50;1.00;;;;;;5012429;28;20431;-66
2022/09/03 07:23:52;;;;;;;46.80;11.10;;;18.60;1.00;;;;;;5012696;28;20771;-65
2022/09/03 07:26:26;;;;;;;32.17;8.00;;;18.60;1.00;;;;;;5012589;28;20850;-67
2022/09/03 07:28:55;;;;;;;12.80;7.33;;;18.60;1.00;;;;;;5010815;28;20490;-65
2022/09/03 07:31:25;;;;;;;11.40;7.57;;;18.10;1.00;;;;;;5011571;28;20462;-64
2022/09/03 07:33:56;;;;;;;9.57;6.87;;;17.80;99.90;;;;;;5012457;28;20775;-66
2022/09/03 07:36:23;;;;;;;29.50;8.00;;;17.60;1.00;;;;;;5011243;28;20431;-65
2022/09/03 07:38:49;;;;;;;32.33;9.00;;;17.80;1.00;;;;;;5012016;28;20776;-66
2022/09/03 07:41:15;;;;;;;9.90;7.23;;;18.10;99.90;;;;;;5011999;28;20427;-66
2022/09/03 07:43:45;;;;;;;7.70;7.00;;;18.10;99.90;;;;;;5016249;28;20413;-62
2022/09/03 07:46:14;;;;;;;11.93;7.73;;;18.10;99.90;;;;;;5011942;28;20172;-64
2022/09/03 07:48:40;;;;;;;48.30;10.87;;;18.20;99.90;;;;;;5010096;28;21002;-63
2022/09/03 07:51:07;;;;;;;18.27;7.70;;;18.30;99.90;;;;;;5010652;28;20435;-64
2022/09/03 07:53:33;;;;;;;13.80;9.17;;;18.40;99.90;;;;;;5012023;28;20461;-65
2022/09/03 07:56:09;;;;;;;8.30;7.20;;;18.30;99.90;;;;;;5012032;28;20919;-64
2022/09/03 07:58:36;;;;;;;22.63;8.20;;;18.40;99.90;;;;;;5011781;28;20451;-64
2022/09/03 08:01:07;;;;;;;14.60;8.70;;;18.50;99.90;;;;;;5011890;28;20586;-65
2022/09/03 08:03:37;;;;;;;16.73;7.90;;;18.70;99.90;;;;;;5011983;28;20411;-64
2022/09/03 08:06:05;;;;;;;15.77;8.43;;;18.80;99.90;;;;;;5012039;28;20407;-61
2022/09/03 08:08:32;;;;;;;9.03;8.13;;;18.70;99.90;;;;;;5011514;28;20546;-64
2022/09/03 08:11:09;;;;;;;14.30;7.23;;;18.80;99.90;;;;;;5011768;28;20431;-62
2022/09/03 08:13:43;;;;;;;7.03;6.43;;;18.80;99.90;;;;;;5011615;28;20419;-65
2022/09/03 08:16:11;;;;;;;34.20;10.00;;;19.00;99.90;;;;;;5011548;28;20411;-64
2022/09/03 08:18:37;;;;;;;10.20;8.37;;;19.00;99.90;;;;;;5009855;28;20424;-65
2022/09/03 08:21:09;;;;;;;13.17;8.50;;;19.20;99.90;;;;;;5011489;28;20521;-61
2022/09/03 08:23:39;;;;;;;10.83;7.93;;;19.40;26.60;;;;;;5011906;28;20414;-64
2022/09/03 08:26:16;;;;;;;11.90;7.80;;;19.60;25.70;;;;;;5010538;28;20420;-64
2022/09/03 08:28:42;;;;;;;25.87;9.60;;;19.80;12.90;;;;;;5011376;28;20516;-62
2022/09/03 08:31:19;;;;;;;20.00;10.07;;;19.80;1.00;;;;;;5033908;23;20668;-66
2022/09/03 08:33:49;;;;;;;20.20;9.60;;;19.80;1.00;;;;;;5012518;28;20403;-67
2022/09/03 08:36:20;;;;;;;7.63;6.83;;;19.80;1.00;;;;;;5012241;28;20718;-67
2022/09/03 08:38:46;;;;;;;16.60;8.60;;;19.60;1.00;;;;;;5011989;28;20461;-66
2022/09/03 08:41:18;;;;;;;14.80;7.67;;;19.60;1.00;;;;;;5011826;28;20435;-66
2022/09/03 08:44:05;;;;;;;14.97;8.27;;;19.50;24.20;;;;;;5012046;28;20286;-66
2022/09/03 08:46:59;;;;;;;70.60;14.80;;;19.50;69.20;;;;;;5012066;28;20795;-66
2022/09/03 08:49:27;;;;;;;23.27;8.23;;;19.30;99.90;;;;;;5011727;28;20427;-66
2022/09/03 08:51:56;;;;;;;14.40;8.13;;;19.20;99.90;;;;;;5011577;28;20481;-66
2022/09/03 08:54:26;;;;;;;20.80;8.20;;;19.40;99.90;;;;;;5012655;28;20399;-68
2022/09/03 08:56:54;;;;;;;30.17;8.47;;;19.60;99.90;;;;;;5011906;28;20395;-66
2022/09/03 08:59:21;;;;;;;14.20;8.73;;;19.70;99.90;;;;;;5011237;28;20414;-66
2022/09/03 09:02:34;;;;;;;31.80;8.60;;;19.80;99.90;;;;;;5011452;28;20434;-65
2022/09/03 09:05:10;;;;;;;132.27;19.63;;;19.90;58.50;;;;;;5011501;28;20387;-65
2022/09/03 09:08:03;;;;;;;75.37;13.90;;;20.10;1.00;;;;;;5011375;28;20450;-66
2022/09/03 09:11:12;;;;;;;32.93;10.53;;;20.10;1.00;;;;;;5011768;28;20443;-66
2022/09/03 09:14:06;;;;;;;73.97;11.40;;;20.30;1.00;;;;;;5011809;28;20376;-67
2022/09/03 09:16:53;;;;;;;14.10;8.07;;;20.30;1.00;;;;;;5005796;28;20416;-66
2022/09/03 09:19:28;;;;;;;107.90;14.27;;;20.40;1.00;;;;;;5011847;28;20380;-67
2022/09/03 09:22:00;;;;;;;57.13;12.63;;;20.30;1.00;;;;;;5011460;28;20434;-67
2022/09/03 09:24:35;;;;;;;19.50;8.10;;;20.30;1.00;;;;;;5011202;28;20375;-68
2022/09/03 09:27:04;;;;;;;21.80;8.23;;;20.50;1.00;;;;;;5011551;28;20801;-68
2022/09/03 09:29:32;;;;;;;13.97;6.40;;;20.50;1.00;;;;;;5010567;28;20407;-68
2022/09/03 09:31:58;;;;;;;33.27;7.87;;;20.60;1.00;;;;;;5008661;28;21054;-67
2022/09/03 09:34:24;;;;;;;25.80;7.40;;;20.70;1.00;;;;;;5009354;28;20411;-67
2022/09/03 09:36:52;;;;;;;14.10;6.77;;;20.80;1.00;;;;;;5008835;28;20187;-67
2022/09/03 09:39:18;;;;;;;15.80;6.43;;;21.00;1.00;;;;;;5008936;28;20215;-67
2022/09/03 09:42:08;;;;;;;14.00;6.10;;;21.10;1.00;;;;;;5008772;28;20433;-67
2022/09/03 09:44:34;;;;;;;10.83;5.37;;;21.40;1.00;;;;;;5008786;28;20384;-67
2022/09/03 09:47:27;;;;;;;10.10;5.90;;;21.70;1.00;;;;;;5008574;28;20458;-67
2022/09/03 09:49:55;;;;;;;11.77;5.40;;;21.90;1.00;;;;;;5008754;28;20392;-67
2022/09/03 09:52:24;;;;;;;6.03;5.43;;;21.90;1.00;;;;;;5008887;28;20486;-67
2022/09/03 09:54:53;;;;;;;9.23;5.37;;;22.10;1.00;;;;;;5011212;28;20395;-67
2022/09/03 09:57:24;;;;;;;6.00;5.40;;;22.30;1.00;;;;;;5012579;28;20522;-67
2022/09/03 10:00:02;;;;;;;12.03;6.83;;;22.60;1.00;;;;;;5013247;28;20706;-67
2022/09/03 10:02:28;;;;;;;11.43;7.00;;;22.70;1.00;;;;;;5014491;28;20895;-66
2022/09/03 10:05:11;;;;;;;15.70;6.30;;;22.90;1.00;;;;;;5014423;28;20415;-67
2022/09/03 10:07:37;;;;;;;23.10;8.53;;;22.80;1.00;;;;;;5014413;28;20195;-68
2022/09/03 10:10:16;;;;;;;19.97;7.80;;;22.50;1.00;;;;;;5014322;28;20407;-66
2022/09/03 10:12:48;;;;;;;13.10;6.23;;;22.30;1.00;;;;;;5013908;28;20180;-66
2022/09/03 10:15:17;;;;;;;17.03;6.77;;;22.30;1.00;;;;;;5014437;28;20437;-67
2022/09/03 10:17:51;;;;;;;6.87;5.47;;;22.20;1.00;;;;;;5014162;28;20858;-67
2022/09/03 10:20:26;;;;;;;16.53;6.20;;;22.20;1.00;;;;;;5014394;28;20406;-67
2022/09/03 10:23:05;;;;;;;9.97;4.50;;;22.20;1.00;;;;;;5013578;28;20418;-66
2022/09/03 10:25:56;;;;;;;11.93;6.13;;;22.30;1.00;;;;;;5013754;28;20399;-66
2022/09/03 10:28:27;;;;;;;10.87;6.33;;;22.30;1.00;;;;;;5013211;28;20451;-67
2022/09/03 10:31:17;;;;;;;57.97;11.37;;;22.50;1.00;;;;;;5013723;28;20771;-68
2022/09/03 10:34:09;;;;;;;60.70;9.33;;;22.60;1.00;;;;;;5013865;28;20461;-68
2022/09/03 10:36:50;;;;;;;28.57;6.33;;;22.50;1.00;;;;;;4997857;28;20411;-68
2022/09/03 10:39:57;;;;;;;19.90;7.17;;;22.50;1.00;;;;;;5011736;28;20431;-67
2022/09/03 10:42:44;;;;;;;23.83;6.73;;;22.60;1.00;;;;;;4997722;28;20431;-68
2022/09/03 10:45:18;;;;;;;14.60;5.50;;;22.70;1.00;;;;;;5011703;28;20887;-68
2022/09/03 10:47:58;;;;;;;23.63;6.50;;;22.30;1.00;;;;;;5011254;28;20486;-67
2022/09/03 10:50:31;;;;;;;48.37;8.30;;;22.40;1.00;;;;;;5011008;28;20948;-68
2022/09/03 10:53:19;;;;;;;7.43;3.73;;;22.60;1.00;;;;;;5011110;28;20441;-67
2022/09/03 10:56:26;;;;;;;45.77;7.93;;;22.90;1.00;;;;;;5011282;28;20461;-66
2022/09/03 10:59:16;;;;;;;5.17;4.40;;;23.30;1.00;;;;;;5010953;28;20407;-67
2022/09/03 11:02:00;;;;;;;37.50;7.30;;;23.30;99.90;;;;;;5010913;28;20477;-66
2022/09/03 11:04:38;;;;;;;19.57;6.10;;;23.30;99.90;;;;;;5010774;28;20406;-66
2022/09/03 11:07:11;;;;;;;14.80;4.03;;;23.30;99.90;;;;;;5009040;28;20542;-66
2022/09/03 11:09:44;;;;;;;14.90;5.03;;;23.30;99.90;;;;;;5011189;28;20410;-66
2022/09/03 11:12:35;;;;;;;14.50;3.53;;;23.30;99.90;;;;;;5011200;28;21319;-67
2022/09/03 11:15:25;;;;;;;4.97;2.57;;;23.40;99.90;;;;;;5010912;28;20431;-66
2022/09/03 11:18:01;;;;;;;13.30;3.23;;;23.20;99.90;;;;;;5010259;28;20411;-67
2022/09/03 11:20:29;;;;;;;5.13;2.90;;;23.30;99.90;;;;;;5010221;28;20395;-67
2022/09/03 11:23:02;;;;;;;9.73;3.20;;;23.20;99.90;;;;;;5010524;28;20527;-67
2022/09/03 11:25:34;;;;;;;8.23;3.27;;;23.10;99.90;;;;;;5010566;28;20399;-67
2022/09/03 11:28:24;;;;;;;13.00;3.70;;;23.20;99.90;;;;;;5009705;28;20454;-67
2022/09/03 11:30:56;;;;;;;12.10;3.20;;;23.40;99.90;;;;;;5010077;28;20495;-67
2022/09/03 11:33:24;;;;;;;9.53;3.03;;;23.50;99.90;;;;;;5010335;28;20439;-67
2022/09/03 11:36:00;;;;;;;13.17;3.57;;;23.50;99.90;;;;;;5010202;28;20403;-67
2022/09/03 11:38:32;;;;;;;2.80;2.60;;;23.50;99.90;;;;;;5009784;28;20405;-66
2022/09/03 11:40:58;;;;;;;3.37;2.40;;;23.60;99.90;;;;;;5009565;28;20394;-66
2022/09/03 11:43:24;;;;;;;3.70;2.40;;;23.70;99.90;;;;;;5010068;28;20408;-66
2022/09/03 11:46:25;;;;;;;14.40;4.50;;;23.80;99.90;;;;;;5010011;28;20912;-67
2022/09/03 11:49:12;;;;;;;17.97;3.80;;;23.80;99.90;;;;;;5009676;28;20446;-67
2022/09/03 11:51:40;;;;;;;15.37;3.70;;;23.70;99.90;;;;;;5010019;28;20438;-67
2022/09/03 11:54:12;;;;;;;67.00;9.33;;;23.50;99.90;;;;;;5009430;28;20411;-66
2022/09/03 11:56:39;;;;;;;11.00;3.87;;;23.40;99.90;;;;;;5009462;28;20907;-68
2022/09/03 11:59:39;;;;;;;6.90;2.93;;;23.30;99.90;;;;;;5009616;28;20411;-67
2022/09/03 12:02:24;;;;;;;17.00;4.07;;;23.20;99.90;;;;;;4987447;28;20447;-67
2022/09/03 12:05:08;;;;;;;16.93;3.90;;;23.10;99.90;;;;;;5010083;28;20534;-66
2022/09/03 12:07:56;;;;;;;22.63;4.30;;;22.90;99.90;;;;;;5009687;28;20515;-66
2022/09/03 12:10:57;;;;;;;7.97;3.10;;;22.80;99.90;;;;;;5009954;28;20431;-67
2022/09/03 12:13:44;;;;;;;6.17;2.83;;;22.60;99.90;;;;;;5007629;28;20441;-67
2022/09/03 12:16:24;;;;;;;7.00;3.23;;;22.50;99.90;;;;;;5009678;28;20395;-67
2022/09/03 12:18:54;;;;;;;11.03;3.73;;;22.30;99.90;;;;;;5010936;28;20482;-67
2022/09/03 12:21:20;;;;;;;6.60;3.33;;;21.80;99.90;;;;;;5012035;28;20490;-68
2022/09/03 12:23:48;;;;;;;17.47;3.60;;;21.40;99.90;;;;;;5012000;28;20415;-67
2022/09/03 12:26:20;;;;;;;10.80;2.60;;;20.90;1.00;;;;;;5011790;28;20172;-67
2022/09/03 12:28:54;;;;;;;36.90;4.30;;;20.80;1.00;;;;;;5011137;28;20534;-69
2022/09/03 12:31:24;;;;;;;17.60;2.90;;;20.80;1.00;;;;;;5011570;28;20806;-66
2022/09/03 12:33:58;;;;;;;24.93;4.53;;;20.80;1.00;;;;;;5011704;28;20786;-66
2022/09/03 12:36:26;;;;;;;31.73;6.03;;;20.90;1.00;;;;;;5011639;28;20407;-67
2022/09/03 12:38:52;;;;;;;5.83;2.80;;;21.00;1.00;;;;;;5011336;28;20503;-66
2022/09/03 12:41:30;;;;;;;14.20;2.80;;;21.00;65.10;;;;;;5011175;28;20510;-67
2022/09/03 12:43:58;;;;;;;18.23;4.20;;;21.10;1.00;;;;;;5011102;28;20199;-67
2022/09/03 12:46:29;;;;;;;8.73;4.20;;;21.20;99.90;;;;;;5011069;28;20407;-67
2022/09/03 12:49:04;;;;;;;13.93;3.33;;;21.20;1.00;;;;;;5010946;28;21045;-67
2022/09/03 12:51:39;;;;;;;10.07;3.30;;;21.20;1.00;;;;;;5011137;28;20765;-67
2022/09/03 12:54:14;;;;;;;17.33;4.40;;;21.30;1.00;;;;;;5009813;28;20419;-66
2022/09/03 12:56:50;;;;;;;7.50;2.30;;;21.40;1.00;;;;;;5011211;28;20657;-67
2022/09/03 12:59:19;;;;;;;24.37;4.20;;;21.40;1.00;;;;;;5011379;28;20485;-67
2022/09/03 13:01:49;;;;;;;11.33;3.73;;;21.50;1.00;;;;;;5011923;28;21077;-67
2022/09/03 13:04:31;;;;;;;19.23;3.90;;;21.60;1.00;;;;;;5011317;28;20403;-67
2022/09/03 13:07:06;;;;;;;3.53;1.93;;;21.80;1.00;;;;;;5010732;28;20422;-67
2022/09/03 13:09:38;;;;;;;5.57;2.30;;;21.90;1.00;;;;;;5011010;28;20509;-67
2022/09/03 13:12:04;;;;;;;6.73;2.10;;;22.10;1.00;;;;;;5011394;28;20505;-67
2022/09/03 13:14:46;;;;;;;12.93;1.97;;;22.10;1.00;;;;;;5011353;28;20902;-67
2022/09/03 13:17:39;;;;;;;5.13;2.77;;;22.20;1.00;;;;;;5010695;28;20432;-67
2022/09/03 13:20:39;;;;;;;4.27;1.90;;;22.30;1.00;;;;;;5009682;28;20411;-67